sensor_id;sensor_type;location;lat;lon;timestamp;temperature;humidity
44069;DHT22;29738;51.234;5.484;2024-01-10T18:07:04;-2.20;99.90
44069;DHT22;29738;51.234;5.484;2024-01-10T18:09:29;-2.20;99.90
44069;DHT22;29738;51.234;5.484;2024-01-10T18:11:55;-2.10;99.90
44069;DHT22;29738;51.234;5.484;2024-01-10T18:14:24;-2.30;99.90
44069;DHT22;29738;51.234;5.484;2024-01-10T18:16:49;-2.40;99.90
44069;DHT22;29738;51.234;5.484;2024-01-10T18:19:15;-2.60;99.90
44069;DHT22;29738;51.234;5.484;2024-01-10T18:21:42;-2.40;99.90
44069;DHT22;29738;51.234;5.484;2024-01-10T18:24:07;-2.60;99.90
44069;DHT22;29738;51.234;5.484;2024-01-10T18:26:34;-2.50;99.90
44069;DHT22;29738;51.234;5.484;2024-01-10T18:28:59;-2.50;99.90
44069;DHT22;29738;51.234;5.484;2024-01-10T18:31:25;-2.60;99.90
44069;DHT22;29738;51.234;5.484;2024-01-10T18:33:52;-2.60;99.90
44069;DHT22;29738;51.234;5.484;2024-01-10T18:36:18;-2.60;99.90
44069;DHT22;29738;51.234;5.484;2024-01-10T18:38:44;-2.60;99.90
44069;DHT22;29738;51.234;5.484;2024-01-10T18:41:09;-2.60;99.90
44069;DHT22;29738;51.234;5.484;2024-01-10T18:43:35;-2.70;99.90
44069;DHT22;29738;51.234;5.484;2024-01-10T18:46:01;-2.80;99.90
44069;DHT22;29738;51.234;5.484;2024-01-10T18:48:28;-2.70;99.90
44069;DHT22;29738;51.234;5.484;2024-01-10T18:50:54;-2.80;99.90
44069;DHT22;29738;51.234;5.484;2024-01-10T18:53:21;-2.80;99.90
44069;DHT22;29738;51.234;5.484;2024-01-10T18:55:48;-2.80;99.90
44069;DHT22;29738;51.234;5.484;2024-01-10T18:58:14;-2.80;99.90
44069;DHT22;29738;51.234;5.484;2024-01-10T19:00:40;-2.80;99.90
44069;DHT22;29738;51.234;5.484;2024-01-10T19:03:07;-2.80;99.90
44069;DHT22;29738;51.234;5.484;2024-01-10T19:05:32;-2.60;99.90
44069;DHT22;29738;51.234;5.484;2024-01-10T19:07:58;-2.90;99.90
44069;DHT22;29738;51.234;5.484;2024-01-10T19:10:24;-2.70;99.90
44069;DHT22;29738;51.234;5.484;2024-01-10T19:12:49;-2.90;99.90
44069;DHT22;29738;51.234;5.484;2024-01-10T19:15:15;-2.90;99.90
44069;DHT22;29738;51.234;5.484;2024-01-10T19:17:41;-2.90;99.90
44069;DHT22;29738;51.234;5.484;2024-01-10T19:20:06;-3.00;99.90
44069;DHT22;29738;51.234;5.484;2024-01-10T19:22:32;-3.00;99.90
44069;DHT22;29738;51.234;5.484;2024-01-10T19:24:58;-3.00;99.90
44069;DHT22;29738;51.234;5.484;2024-01-10T19:27:29;-3.00;99.90
44069;DHT22;29738;51.234;5.484;2024-01-10T22:24:32;-4.30;99.90
44069;DHT22;29738;51.234;5.484;2024-01-10T22:26:57;-4.30;99.90
44069;DHT22;29738;51.234;5.484;2024-01-10T22:29:23;-4.50;99.90
44069;DHT22;29738;51.234;5.484;2024-01-10T22:31:51;-4.60;99.90
44069;DHT22;29738;51.234;5.484;2024-01-10T22:34:17;-4.70;99.90
44069;DHT22;29738;51.234;5.484;2024-01-10T22:36:42;-4.70;99.90
44069;DHT22;29738;51.234;5.484;2024-01-10T22:39:08;-4.70;99.90
44069;DHT22;29738;51.234;5.484;2024-01-10T22:41:35;-4.60;99.90
44069;DHT22;29738;51.234;5.484;2024-01-10T22:44:00;-4.50;99.90
44069;DHT22;29738;51.234;5.484;2024-01-10T22:46:26;-4.70;99.90
44069;DHT22;29738;51.234;5.484;2024-01-10T23:37:41;-4.80;99.90
44069;DHT22;29738;51.234;5.484;2024-01-10T23:40:10;-4.80;99.90
44069;DHT22;29738;51.234;5.484;2024-01-10T23:42:36;-4.90;99.90
44069;DHT22;29738;51.234;5.484;2024-01-10T23:45:06;-4.90;99.90
44069;DHT22;29738;51.234;5.484;2024-01-10T23:52:41;-4.90;99.90
44069;DHT22;29738;51.234;5.484;2024-01-10T23:55:15;-4.70;99.90
44069;DHT22;29738;51.234;5.484;2024-01-10T23:57:40;-4.90;99.90
